Time;durP1;ratioP1;P1;durP2;ratioP2;P2;SDS_P1;SDS_P2;PMS_P1;PMS_P2;Temp;Humidity;BMP_temperature;BMP_pressure;BME280_temperature;BME280_humidity;BME280_pressure;Samples;Min_cycle;Max_cycle;Signal;HPM_P1;HPM_P2
2023/06/26 00:01:32;;;;;;;;;;;15.20;79.00;;;;;;5091474;28;19912;-66
2023/06/26 00:04:00;;;;;;;;;;;15.30;79.10;;;;;;5073661;28;19908;-62
2023/06/26 00:06:26;;;;;;;;;;;15.40;78.80;;;;;;5077563;28;19977;-64
2023/06/26 00:08:54;;;;;;;;;;;15.50;79.00;;;;;;5094930;28;19908;-64
2023/06/26 00:11:21;;;;;;;;;;;15.60;78.90;;;;;;5093435;28;19961;-61
2023/06/26 00:13:47;;;;;;;;;;;15.70;77.80;;;;;;5094320;28;20372;-64
2023/06/26 00:16:14;;;;;;;;;;;15.80;78.20;;;;;;5080403;28;20063;-64
2023/06/26 00:18:40;;;;;;;;;;;15.80;78.60;;;;;;5074132;28;19908;-64
2023/06/26 00:21:07;;;;;;;;;;;15.90;77.80;;;;;;5081820;28;19913;-65
2023/06/26 00:23:36;;;;;;;;;;;16.00;77.60;;;;;;5093789;28;20049;-62
2023/06/26 00:26:04;;;;;;;;;;;16.10;77.20;;;;;;5081376;28;19965;-64
2023/06/26 00:28:31;;;;;;;;;;;16.10;77.10;;;;;;5094208;28;19908;-64
2023/06/26 00:30:58;;;;;;;;;;;16.10;75.70;;;;;;5094364;28;19915;-64
2023/06/26 00:33:24;;;;;;;;;;;16.20;76.50;;;;;;5079487;28;19921;-67
2023/06/26 00:35:51;;;;;;;;;;;16.30;75.90;;;;;;5083995;28;19915;-65
2023/06/26 00:38:17;;;;;;;;;;;16.40;75.80;;;;;;5080724;28;19912;-66
2023/06/26 00:40:44;;;;;;;;;;;16.60;75.30;;;;;;5094301;28;19995;-66
2023/06/26 00:43:11;;;;;;;;;;;16.60;74.60;;;;;;5093479;28;19947;-66
2023/06/26 00:45:37;;;;;;;;;;;16.60;74.20;;;;;;5081894;28;19916;-67
2023/06/26 00:48:04;;;;;;;;;;;16.60;74.50;;;;;;5079655;28;19916;-66
2023/06/26 00:50:32;;;;;;;;;;;16.70;74.60;;;;;;5093592;28;20388;-65
2023/06/26 00:53:00;;;;;;;;;;;16.80;74.90;;;;;;5089830;28;19920;-66
2023/06/26 00:55:27;;;;;;;;;;;16.90;74.40;;;;;;5083751;28;19924;-65
2023/06/26 00:57:54;;;;;;;;;;;16.90;74.10;;;;;;5078176;28;19923;-67
2023/06/26 01:00:21;;;;;;;;;;;17.00;74.20;;;;;;5074975;28;19913;-65
2023/06/26 01:02:48;;;;;;;;;;;17.10;73.30;;;;;;5073202;28;19908;-66
2023/06/26 01:05:20;;;;;;;;;;;17.10;73.10;;;;;;5078706;28;19993;-66
2023/06/26 01:07:50;;;;;;;;;;;17.20;73.60;;;;;;5079338;28;19913;-63
2023/06/26 01:10:17;;;;;;;;;;;17.20;72.70;;;;;;5073412;28;19912;-63
2023/06/26 01:12:43;;;;;;;;;;;17.20;72.70;;;;;;5089414;28;19931;-64
2023/06/26 01:15:10;;;;;;;;;;;17.20;72.60;;;;;;5093190;28;19995;-64
2023/06/26 01:17:38;;;;;;;;;;;17.30;73.00;;;;;;5082583;28;19924;-65
2023/06/26 01:20:08;;;;;;;;;;;17.40;72.70;;;;;;5079664;28;19916;-65
2023/06/26 01:22:44;;;;;;;;;;;17.50;71.80;;;;;;5092937;28;20435;-68
2023/06/26 01:25:30;;;;;;;;;;;17.60;72.20;;;;;;5073834;28;19931;-65
2023/06/26 01:27:57;;;;;;;;;;;17.60;72.30;;;;;;5072574;28;19908;-65
2023/06/26 01:30:24;;;;;;;;;;;17.80;71.40;;;;;;5072776;28;19936;-67
2023/06/26 01:32:51;;;;;;;;;;;17.80;71.50;;;;;;5071534;28;19925;-66
2023/06/26 01:35:18;;;;;;;;;;;17.90;70.80;;;;;;5086268;28;20001;-65
2023/06/26 01:37:44;;;;;;;;;;;18.00;71.30;;;;;;5092361;28;19908;-66
2023/06/26 01:40:11;;;;;;;;;;;18.00;70.70;;;;;;5092365;28;19919;-65
2023/06/26 01:42:38;;;;;;;;;;;18.10;70.40;;;;;;5092151;28;19912;-65
2023/06/26 01:45:11;;;;;;;;;;;18.20;70.80;;;;;;5070109;28;20266;-65
2023/06/26 01:47:39;;;;;;;;;;;18.20;70.40;;;;;;5088433;28;19908;-65
2023/06/26 01:50:13;;;;;;;;;;;18.30;70.80;;;;;;5092633;28;20003;-64
2023/06/26 01:52:46;;;;;;;;;;;18.50;70.60;;;;;;5092177;28;19922;-64
2023/06/26 01:55:17;;;;;;;;;;;18.50;69.40;;;;;;5091421;28;19915;-65
2023/06/26 01:57:46;;;;;;;;;;;18.60;70.50;;;;;;5092064;28;20123;-63
2023/06/26 02:00:15;;;;;;;;;;;18.70;69.40;;;;;;5073662;28;19908;-65
2023/06/26 02:02:42;;;;;;;;;;;18.80;69.50;;;;;;5093027;28;19919;-64
2023/06/26 02:05:09;;;;;;;;;;;18.70;69.40;;;;;;5087888;28;19921;-63
2023/06/26 02:07:35;;;;;;;;;;;18.70;69.20;;;;;;5080773;28;19951;-66
2023/06/26 02:10:02;;;;;;;;;;;18.80;69.00;;;;;;5092212;28;19919;-66
2023/06/26 02:12:29;;;;;;;;;;;18.70;69.30;;;;;;5092180;28;19916;-66
2023/06/26 02:14:56;;;;;;;;;;;18.60;69.60;;;;;;5091593;28;19908;-65
2023/06/26 02:17:22;;;;;;;;;;;18.70;69.20;;;;;;5091320;28;19919;-66
2023/06/26 02:19:49;;;;;;;;;;;18.70;69.20;;;;;;5084438;28;19908;-65
2023/06/26 02:22:16;;;;;;;;;;;18.60;69.40;;;;;;5088090;28;20364;-64
2023/06/26 02:24:43;;;;;;;;;;;18.70;69.60;;;;;;5087657;28;19908;-63
2023/06/26 02:27:10;;;;;;;;;;;18.70;68.80;;;;;;5079420;28;20387;-62
2023/06/26 02:29:37;;;;;;;;;;;18.70;69.40;;;;;;5090847;28;19915;-63
2023/06/26 02:32:04;;;;;;;;;;;18.90;68.80;;;;;;5090008;28;19916;-64
2023/06/26 02:34:30;;;;;;;;;;;19.00;68.80;;;;;;5091222;28;19909;-62
2023/06/26 02:36:58;;;;;;;;;;;19.00;68.50;;;;;;5086187;28;20280;-66
2023/06/26 02:39:24;;;;;;;;;;;19.10;69.50;;;;;;5091362;28;19912;-64
2023/06/26 02:41:51;;;;;;;;;;;19.10;69.40;;;;;;5091622;28;19959;-63
2023/06/26 02:44:18;;;;;;;;;;;19.20;68.40;;;;;;5092153;28;19920;-64
2023/06/26 02:46:45;;;;;;;;;;;19.10;68.10;;;;;;5077331;28;19920;-64
2023/06/26 02:49:11;;;;;;;;;;;19.00;68.00;;;;;;5093744;28;19908;-64
2023/06/26 02:51:38;;;;;;;;;;;19.10;68.50;;;;;;5096052;28;19916;-64
2023/06/26 02:54:05;;;;;;;;;;;19.20;68.20;;;;;;5100557;28;19920;-63
2023/06/26 02:56:31;;;;;;;;;;;19.40;67.50;;;;;;5093534;28;19959;-61
2023/06/26 02:58:58;;;;;;;;;;;19.80;67.10;;;;;;5095774;28;19909;-62
2023/06/26 03:01:25;;;;;;;;;;;20.20;66.50;;;;;;5094390;28;19923;-66
2023/06/26 03:03:51;;;;;;;;;;;20.50;65.70;;;;;;5096017;28;19950;-61
2023/06/26 03:06:18;;;;;;;;;;;20.70;65.80;;;;;;5094242;28;19966;-65
2023/06/26 03:08:45;;;;;;;;;;;21.00;64.50;;;;;;5096189;28;20298;-64
2023/06/26 03:11:11;;;;;;;;;;;21.00;64.50;;;;;;5095191;28;20006;-62
2023/06/26 03:13:38;;;;;;;;;;;20.80;64.90;;;;;;5075599;28;20003;-63
2023/06/26 03:16:05;;;;;;;;;;;20.70;65.10;;;;;;5085666;28;19939;-65
2023/06/26 03:18:31;;;;;;;;;;;20.50;65.10;;;;;;5094134;28;19908;-65
2023/06/26 03:20:59;;;;;;;;;;;20.70;64.70;;;;;;5094316;28;19914;-63
2023/06/26 03:23:26;;;;;;;;;;;21.10;64.60;;;;;;5094670;28;19916;-64
2023/06/26 03:25:53;;;;;;;;;;;21.60;63.80;;;;;;5093552;28;19909;-66
2023/06/26 03:28:20;;;;;;;;;;;22.10;63.00;;;;;;5093308;28;19908;-65
2023/06/26 03:30:46;;;;;;;;;;;22.90;62.30;;;;;;5095587;28;19947;-63
2023/06/26 03:33:13;;;;;;;;;;;23.20;61.50;;;;;;5094737;28;19916;-63
2023/06/26 03:35:40;;;;;;;;;;;23.60;61.70;;;;;;5075840;28;19916;-64
2023/06/26 03:38:06;;;;;;;;;;;24.30;60.10;;;;;;5094992;28;19911;-63
2023/06/26 03:40:33;;;;;;;;;;;25.40;58.10;;;;;;5095395;28;20276;-67
2023/06/26 03:43:00;;;;;;;;;;;26.40;56.90;;;;;;5095428;28;19927;-66
2023/06/26 03:45:26;;;;;;;;;;;27.00;56.10;;;;;;5094741;28;19935;-66
2023/06/26 03:47:53;;;;;;;;;;;26.90;54.80;;;;;;5094446;28;20268;-64
2023/06/26 03:50:19;;;;;;;;;;;27.60;54.20;;;;;;5094963;28;19908;-65
2023/06/26 03:52:46;;;;;;;;;;;27.60;53.90;;;;;;5095193;28;19916;-64
2023/06/26 03:55:13;;;;;;;;;;;27.60;53.50;;;;;;5068905;28;19956;-67
2023/06/26 03:57:40;;;;;;;;;;;27.60;53.60;;;;;;5073136;28;19912;-66
2023/06/26 04:00:12;;;;;;;;;;;27.40;53.90;;;;;;5075137;28;19935;-66
2023/06/26 04:02:38;;;;;;;;;;;27.50;54.00;;;;;;5074872;28;20423;-62
2023/06/26 04:05:05;;;;;;;;;;;27.10;53.70;;;;;;5078344;28;19908;-63
2023/06/26 04:07:32;;;;;;;;;;;26.40;54.10;;;;;;5094558;28;19908;-63
2023/06/26 04:09:58;;;;;;;;;;;25.70;54.80;;;;;;5094342;28;19955;-66
2023/06/26 04:12:25;;;;;;;;;;;24.60;56.10;;;;;;5094841;28;20359;-63
2023/06/26 04:14:52;;;;;;;;;;;23.70;57.60;;;;;;5086458;28;19919;-65
2023/06/26 04:17:18;;;;;;;;;;;22.80;58.40;;;;;;5074123;28;19909;-65
2023/06/26 04:19:45;;;;;;;;;;;22.00;59.60;;;;;;5091746;28;19944;-63
2023/06/26 04:22:12;;;;;;;;;;;21.30;60.90;;;;;;5092779;28;20389;-62
2023/06/26 04:24:38;;;;;;;;;;;20.80;61.90;;;;;;5087291;28;19912;-62
2023/06/26 04:27:05;;;;;;;;;;;20.50;63.00;;;;;;5065724;28;20353;-61
2023/06/26 04:29:32;;;;;;;;;;;20.20;63.40;;;;;;5093354;28;19912;-63
2023/06/26 04:31:59;;;;;;;;;;;20.00;64.00;;;;;;5094507;28;19927;-63
2023/06/26 04:34:26;;;;;;;;;;;19.70;64.30;;;;;;5093844;28;20361;-65
2023/06/26 04:36:52;;;;;;;;;;;19.60;64.80;;;;;;5075030;28;19916;-60
2023/06/26 04:39:19;;;;;;;;;;;19.50;64.90;;;;;;5073615;28;19915;-65
2023/06/26 04:41:46;;;;;;;;;;;19.40;65.00;;;;;;5080454;28;20056;-62
2023/06/26 04:44:12;;;;;;;;;;;19.40;65.60;;;;;;5092375;28;19928;-64
2023/06/26 04:46:42;;;;;;;;;;;19.30;65.40;;;;;;5092553;28;19909;-64
2023/06/26 04:49:09;;;;;;;;;;;19.40;65.90;;;;;;5092950;28;19912;-63
2023/06/26 04:51:42;;;;;;;;;;;19.40;64.80;;;;;;5093811;28;20049;-62
2023/06/26 04:54:09;;;;;;;;;;;19.40;64.50;;;;;;5093778;28;20005;-62
2023/06/26 04:56:36;;;;;;;;;;;19.30;64.90;;;;;;5089711;28;19915;-61
2023/06/26 04:59:03;;;;;;;;;;;19.40;64.70;;;;;;5093237;28;19908;-60
2023/06/26 05:01:31;;;;;;;;;;;19.40;65.30;;;;;;5074700;28;19908;-61
2023/06/26 05:04:02;;;;;;;;;;;19.30;64.60;;;;;;5093073;28;19953;-62
2023/06/26 05:06:28;;;;;;;;;;;19.40;64.60;;;;;;5089529;28;19955;-59
2023/06/26 05:08:55;;;;;;;;;;;19.20;64.90;;;;;;5092863;28;20379;-61
2023/06/26 05:11:22;;;;;;;;;;;19.20;65.10;;;;;;5093156;28;19949;-63
2023/06/26 05:13:50;;;;;;;;;;;19.20;65.00;;;;;;5092605;28;19938;-63
2023/06/26 05:16:16;;;;;;;;;;;19.00;64.80;;;;;;5078991;28;19913;-65
2023/06/26 05:18:43;;;;;;;;;;;19.00;65.10;;;;;;5073990;28;19908;-64
2023/06/26 05:21:10;;;;;;;;;;;18.90;66.00;;;;;;5085191;28;19908;-65
2023/06/26 05:23:38;;;;;;;;;;;19.00;65.40;;;;;;5092774;28;20003;-64
2023/06/26 05:26:05;;;;;;;;;;;19.00;65.70;;;;;;5062752;28;19939;-64
2023/06/26 05:28:31;;;;;;;;;;;18.90;64.80;;;;;;5089103;28;19916;-64
2023/06/26 05:30:58;;;;;;;;;;;18.90;64.80;;;;;;5091373;28;19961;-63
2023/06/26 05:33:26;;;;;;;;;;;19.00;65.50;;;;;;5092517;28;19931;-62
2023/06/26 05:35:53;;;;;;;;;;;19.00;65.10;;;;;;5092963;28;19914;-64
2023/06/26 05:38:22;;;;;;;;;;;19.10;65.30;;;;;;5093108;28;20364;-65
2023/06/26 05:40:50;;;;;;;;;;;19.20;65.30;;;;;;5092758;28;19921;-65
2023/06/26 05:43:20;;;;;;;;;;;19.40;65.10;;;;;;5091850;28;19992;-65
2023/06/26 05:45:48;;;;;;;;;;;19.40;64.80;;;;;;5092343;28;19908;-66
2023/06/26 05:48:15;;;;;;;;;;;19.50;65.00;;;;;;5091837;28;19917;-67
2023/06/26 05:50:43;;;;;;;;;;;19.30;64.70;;;;;;5090034;28;19912;-66
2023/06/26 05:53:10;;;;;;;;;;;19.30;65.30;;;;;;5069790;28;20897;-65
2023/06/26 05:55:37;;;;;;;;;;;19.20;65.10;;;;;;5077794;28;20782;-67
2023/06/26 05:58:03;;;;;;;;;;;19.20;64.90;;;;;;5091864;28;19919;-64
2023/06/26 06:00:30;;;;;;;;;;;19.20;64.80;;;;;;5091830;28;19928;-65
2023/06/26 06:02:57;;;;;;;;;;;19.50;66.00;;;;;;5090864;28;19939;-65
2023/06/26 06:05:23;;;;;;;;;;;19.80;63.90;;;;;;5087078;28;19952;-66
2023/06/26 06:07:50;;;;;;;;;;;19.90;63.90;;;;;;5091591;28;19908;-67
2023/06/26 06:10:17;;;;;;;;;;;20.40;62.90;;;;;;5091639;28;19908;-64
2023/06/26 06:12:44;;;;;;;;;;;20.60;61.90;;;;;;5092061;28;19923;-65
2023/06/26 06:15:10;;;;;;;;;;;20.40;61.50;;;;;;5091147;28;19908;-65
2023/06/26 06:17:37;;;;;;;;;;;19.80;62.70;;;;;;5088682;28;20279;-65
2023/06/26 06:20:04;;;;;;;;;;;19.30;63.90;;;;;;5090549;28;19950;-64
2023/06/26 06:22:31;;;;;;;;;;;18.80;64.40;;;;;;5091118;28;19954;-66
2023/06/26 06:24:58;;;;;;;;;;;18.50;65.40;;;;;;5090341;28;19916;-66
2023/06/26 06:27:24;;;;;;;;;;;18.20;65.70;;;;;;5091219;28;19947;-64
2023/06/26 06:29:51;;;;;;;;;;;17.90;65.60;;;;;;5091522;28;19915;-64
2023/06/26 06:32:18;;;;;;;;;;;17.60;66.10;;;;;;5071618;28;19958;-63
2023/06/26 06:34:45;;;;;;;;;;;17.50;67.40;;;;;;5090603;28;19912;-64
2023/06/26 06:37:11;;;;;;;;;;;17.40;67.30;;;;;;5082691;28;19912;-66
2023/06/26 06:39:38;;;;;;;;;;;17.30;67.50;;;;;;5056869;28;19960;-62
2023/06/26 06:42:05;;;;;;;;;;;17.10;67.70;;;;;;5088968;28;19916;-63
2023/06/26 06:44:33;;;;;;;;;;;17.00;68.00;;;;;;5089477;28;19976;-62
2023/06/26 06:46:59;;;;;;;;;;;16.90;68.10;;;;;;5081770;28;19912;-64
2023/06/26 06:49:26;;;;;;;;;;;16.80;68.30;;;;;;5090395;28;19945;-64
2023/06/26 06:51:54;;;;;;;;;;;16.70;68.40;;;;;;5089791;28;19916;-64
2023/06/26 06:54:21;;;;;;;;;;;16.60;68.70;;;;;;5085858;28;19919;-64
2023/06/26 06:56:48;;;;;;;;;;;16.60;68.80;;;;;;5081051;28;20380;-62
2023/06/26 06:59:15;;;;;;;;;;;16.60;69.10;;;;;;5091825;28;20120;-63
2023/06/26 07:01:42;;;;;;;;;;;16.60;69.30;;;;;;5074225;28;19947;-63
2023/06/26 07:04:09;;;;;;;;;;;16.50;70.00;;;;;;5070960;28;20002;-64
2023/06/26 07:06:36;;;;;;;;;;;16.40;70.60;;;;;;5079806;28;19909;-64
2023/06/26 07:09:03;;;;;;;;;;;16.30;70.30;;;;;;5090552;28;20007;-65
2023/06/26 07:11:33;;;;;;;;;;;16.20;70.10;;;;;;5094284;28;20326;-62
2023/06/26 07:14:03;;;;;;;;;;;16.20;70.20;;;;;;5083740;28;19920;-62
2023/06/26 07:16:30;;;;;;;;;;;16.20;70.00;;;;;;5074288;28;19908;-63
2023/06/26 07:19:07;;;;;;;;;;;16.20;69.80;;;;;;5091280;28;19913;-63
2023/06/26 07:21:34;;;;;;;;;;;16.20;69.90;;;;;;5090490;28;19908;-62
2023/06/26 07:24:00;;;;;;;;;;;16.10;70.40;;;;;;5072042;28;20380;-64
2023/06/26 07:26:27;;;;;;;;;;;16.10;70.30;;;;;;5076104;28;19912;-64
2023/06/26 07:28:56;;;;;;;;;;;16.00;70.80;;;;;;5090776;28;20527;-62
2023/06/26 07:31:23;;;;;;;;;;;16.00;70.10;;;;;;5091728;28;19908;-65
2023/06/26 07:33:49;;;;;;;;;;;15.90;70.10;;;;;;5085726;28;19970;-64
2023/06/26 07:36:16;;;;;;;;;;;15.90;70.00;;;;;;5095909;28;19908;-63
2023/06/26 07:38:43;;;;;;;;;;;15.90;70.30;;;;;;5081575;28;20276;-62
2023/06/26 07:41:09;;;;;;;;;;;15.90;70.10;;;;;;5094535;28;19908;-65
2023/06/26 07:43:36;;;;;;;;;;;15.90;70.20;;;;;;5071414;28;19927;-62
2023/06/26 07:46:02;;;;;;;;;;;15.90;70.10;;;;;;5094838;28;19938;-62
2023/06/26 07:48:29;;;;;;;;;;;15.80;70.40;;;;;;5094865;28;19918;-63
2023/06/26 07:50:56;;;;;;;;;;;15.70;70.40;;;;;;5096087;28;20002;-65
2023/06/26 07:53:22;;;;;;;;;;;15.70;70.70;;;;;;5081231;28;19960;-65
2023/06/26 07:55:49;;;;;;;;;;;15.70;70.80;;;;;;5074800;28;20372;-65
2023/06/26 07:58:15;;;;;;;;;;;15.70;70.80;;;;;;5094924;28;20392;-65
2023/06/26 08:00:42;;;;;;;;;;;15.70;70.90;;;;;;5095040;28;19954;-63
2023/06/26 08:03:09;;;;;;;;;;;15.70;70.90;;;;;;5077105;28;20250;-66
2023/06/26 08:05:35;;;;;;;;;;;15.80;71.10;;;;;;5075665;28;19920;-66
2023/06/26 08:08:03;;;;;;;;;;;15.70;71.20;;;;;;5093726;28;19912;-63
2023/06/26 08:10:30;;;;;;;;;;;15.70;71.50;;;;;;5093752;28;19939;-64
2023/06/26 08:12:57;;;;;;;;;;;15.60;71.40;;;;;;5077226;28;19921;-65
2023/06/26 08:15:23;;;;;;;;;;;15.60;71.40;;;;;;5074970;28;19951;-67
2023/06/26 08:17:50;;;;;;;;;;;15.60;71.60;;;;;;5092122;28;19916;-63
2023/06/26 08:20:17;;;;;;;;;;;15.60;71.70;;;;;;5095388;28;19909;-62
2023/06/26 08:22:44;;;;;;;;;;;15.50;72.00;;;;;;5077156;28;19939;-64
2023/06/26 08:25:11;;;;;;;;;;;15.60;72.00;;;;;;5075313;28;19915;-64
2023/06/26 08:27:38;;;;;;;;;;;15.50;72.10;;;;;;5089654;28;19912;-66
2023/06/26 08:30:05;;;;;;;;;;;15.50;72.40;;;;;;5079354;28;19912;-61
2023/06/26 08:32:31;;;;;;;;;;;15.50;72.50;;;;;;5074654;28;20342;-62
2023/06/26 08:34:58;;;;;;;;;;;15.40;72.60;;;;;;5082846;28;20007;-62
2023/06/26 08:37:25;;;;;;;;;;;15.40;73.00;;;;;;5093409;28;19920;-63
2023/06/26 08:39:52;;;;;;;;;;;15.30;72.90;;;;;;5094188;28;20007;-62
2023/06/26 08:42:18;;;;;;;;;;;15.30;73.10;;;;;;5088517;28;19912;-63
2023/06/26 08:44:45;;;;;;;;;;;15.30;73.10;;;;;;5073631;28;19920;-63
2023/06/26 08:47:14;;;;;;;;;;;15.30;73.00;;;;;;5085373;28;20261;-63
2023/06/26 08:49:52;;;;;;;;;;;15.20;73.10;;;;;;5093905;28;20360;-63
2023/06/26 08:52:29;;;;;;;;;;;15.20;73.10;;;;;;5092917;28;19920;-63
2023/06/26 08:54:58;;;;;;;;;;;15.10;73.30;;;;;;5093712;28;19908;-63
2023/06/26 08:57:26;;;;;;;;;;;15.10;73.40;;;;;;5093338;28;20552;-63
2023/06/26 08:59:53;;;;;;;;;;;15.10;74.10;;;;;;5093387;28;19915;-61
2023/06/26 09:02:23;;;;;;;;;;;15.00;73.80;;;;;;5092080;28;19912;-62
2023/06/26 09:04:50;;;;;;;;;;;14.90;74.20;;;;;;5082077;28;20022;-62
2023/06/26 09:07:17;;;;;;;;;;;14.90;74.20;;;;;;5085732;28;19912;-63
2023/06/26 09:09:44;;;;;;;;;;;14.90;74.00;;;;;;5092027;28;19908;-64
2023/06/26 09:12:11;;;;;;;;;;;14.80;74.10;;;;;;5087591;28;20286;-63
2023/06/26 09:14:38;;;;;;;;;;;14.90;74.20;;;;;;5092901;28;19919;-62
2023/06/26 09:17:05;;;;;;;;;;;14.90;74.90;;;;;;5084564;28;19919;-63
2023/06/26 09:19:31;;;;;;;;;;;14.80;74.40;;;;;;5093234;28;19930;-61
2023/06/26 09:21:58;;;;;;;;;;;14.80;74.70;;;;;;5081344;28;20376;-62
2023/06/26 09:24:25;;;;;;;;;;;14.70;74.90;;;;;;5087981;28;19917;-62
2023/06/26 09:26:52;;;;;;;;;;;14.70;74.70;;;;;;5081519;28;19957;-65
2023/06/26 09:29:20;;;;;;;;;;;14.60;74.60;;;;;;5092390;28;19920;-61
2023/06/26 09:31:46;;;;;;;;;;;14.60;74.70;;;;;;5072628;28;19969;-63
2023/06/26 09:34:13;;;;;;;;;;;14.60;74.90;;;;;;5090969;28;19965;-62
2023/06/26 09:36:42;;;;;;;;;;;14.50;75.20;;;;;;5092918;28;20003;-63
2023/06/26 09:39:10;;;;;;;;;;;14.50;75.50;;;;;;5092775;28;19912;-63
2023/06/26 09:41:40;;;;;;;;;;;14.60;75.40;;;;;;5092844;28;19915;-62
2023/06/26 09:44:07;;;;;;;;;;;14.50;75.70;;;;;;5071962;28;20405;-62
2023/06/26 09:46:34;;;;;;;;;;;14.50;76.00;;;;;;5078822;28;19908;-63
2023/06/26 09:49:04;;;;;;;;;;;14.50;76.10;;;;;;5093057;28;19916;-62
2023/06/26 09:51:34;;;;;;;;;;;14.50;76.30;;;;;;5093332;28;19908;-62
2023/06/26 09:54:02;;;;;;;;;;;14.50;76.50;;;;;;5088290;28;19923;-63
2023/06/26 09:56:29;;;;;;;;;;;14.60;76.50;;;;;;5092367;28;19916;-63
2023/06/26 09:58:57;;;;;;;;;;;14.60;76.60;;;;;;5085642;28;19919;-63
2023/06/26 10:01:24;;;;;;;;;;;14.60;76.80;;;;;;5092924;28;19908;-62
2023/06/26 10:03:51;;;;;;;;;;;14.70;77.00;;;;;;5083629;28;20350;-64
2023/06/26 10:06:37;;;;;;;;;;;14.60;77.10;;;;;;5083481;28;19908;-61
2023/06/26 10:09:04;;;;;;;;;;;14.60;77.30;;;;;;5081102;28;20360;-63
2023/06/26 10:11:54;;;;;;;;;;;14.60;77.70;;;;;;5074695;28;19913;-64
2023/06/26 10:14:34;;;;;;;;;;;14.60;77.80;;;;;;5052078;28;19967;-63
2023/06/26 10:17:01;;;;;;;;;;;14.60;77.80;;;;;;5072729;28;19912;-63
2023/06/26 10:19:28;;;;;;;;;;;14.60;77.90;;;;;;5074621;28;19916;-63
2023/06/26 10:21:55;;;;;;;;;;;14.60;78.10;;;;;;5070971;28;19908;-62
2023/06/26 10:24:23;;;;;;;;;;;14.60;78.40;;;;;;5076345;28;19966;-64
2023/06/26 10:26:52;;;;;;;;;;;14.60;78.50;;;;;;5080614;28;19998;-66
2023/06/26 10:29:20;;;;;;;;;;;14.50;78.70;;;;;;5091581;28;19919;-61
2023/06/26 10:31:50;;;;;;;;;;;14.50;78.80;;;;;;5090770;28;19912;-63
2023/06/26 10:34:17;;;;;;;;;;;14.40;78.90;;;;;;5091423;28;19914;-63
2023/06/26 10:36:43;;;;;;;;;;;14.30;79.20;;;;;;5091929;28;20337;-63
2023/06/26 10:39:10;;;;;;;;;;;14.20;79.70;;;;;;5091718;28;19981;-62
2023/06/26 10:41:38;;;;;;;;;;;14.30;79.50;;;;;;5074274;28;19977;-63
2023/06/26 10:44:04;;;;;;;;;;;14.20;79.60;;;;;;5073961;28;19922;-62
2023/06/26 10:46:34;;;;;;;;;;;14.30;80.10;;;;;;5071733;28;20353;-63
2023/06/26 10:49:03;;;;;;;;;;;14.20;80.10;;;;;;5071897;28;20007;-61
2023/06/26 10:51:29;;;;;;;;;;;14.20;80.70;;;;;;5071785;28;19999;-62
2023/06/26 10:53:58;;;;;;;;;;;14.10;80.80;;;;;;5090272;28;19912;-62
2023/06/26 10:56:43;;;;;;;;;;;14.00;81.10;;;;;;5074694;28;19913;-62
2023/06/26 10:59:16;;;;;;;;;;;14.00;82.00;;;;;;5071469;28;19908;-63
2023/06/26 11:01:46;;;;;;;;;;;13.90;82.20;;;;;;5083724;28;20424;-62
2023/06/26 11:04:16;;;;;;;;;;;13.80;83.40;;;;;;5073589;28;20011;-63
2023/06/26 11:06:48;;;;;;;;;;;13.80;84.20;;;;;;5083398;28;19923;-62
2023/06/26 11:09:16;;;;;;;;;;;13.80;84.50;;;;;;5075565;28;19917;-62
2023/06/26 11:11:57;;;;;;;;;;;13.60;84.70;;;;;;5075992;28;19917;-63
2023/06/26 11:14:24;;;;;;;;;;;13.50;85.40;;;;;;5076007;28;19913;-63
2023/06/26 11:16:51;;;;;;;;;;;13.40;86.30;;;;;;5075659;28;19908;-62
2023/06/26 11:19:19;;;;;;;;;;;13.30;86.90;;;;;;5075442;28;19909;-63
2023/06/26 11:21:46;;;;;;;;;;;13.20;87.30;;;;;;5075973;28;20015;-62
2023/06/26 11:24:13;;;;;;;;;;;13.20;87.40;;;;;;5095822;28;20364;-62
2023/06/26 11:26:40;;;;;;;;;;;13.00;87.90;;;;;;5094273;28;20393;-62
2023/06/26 11:29:08;;;;;;;;;;;12.90;88.50;;;;;;5094653;28;19916;-63
2023/06/26 11:31:38;;;;;;;;;;;12.90;88.60;;;;;;5095763;28;19908;-63
2023/06/26 11:34:11;;;;;;;;;;;12.80;88.50;;;;;;5094895;28;20281;-63
2023/06/26 11:36:38;;;;;;;;;;;12.70;89.10;;;;;;5095531;28;19908;-61
2023/06/26 11:39:06;;;;;;;;;;;12.70;89.60;;;;;;5095545;28;19912;-61
2023/06/26 11:41:33;;;;;;;;;;;12.60;89.60;;;;;;5095526;28;20306;-61
2023/06/26 11:44:04;;;;;;;;;;;12.50;89.50;;;;;;5094750;28;19927;-65
2023/06/26 11:46:31;;;;;;;;;;;12.50;89.90;;;;;;5094486;28;20451;-62
2023/06/26 11:48:58;;;;;;;;;;;12.50;89.30;;;;;;5094790;28;19931;-61
2023/06/26 11:51:27;;;;;;;;;;;12.50;89.60;;;;;;5094511;28;20412;-64
2023/06/26 11:53:53;;;;;;;;;;;12.60;89.30;;;;;;5094151;28;19924;-64
2023/06/26 11:56:22;;;;;;;;;;;12.70;89.70;;;;;;5094027;28;19908;-61
2023/06/26 11:59:00;;;;;;;;;;;12.70;90.50;;;;;;5094772;28;19908;-60
2023/06/26 12:01:28;;;;;;;;;;;12.60;90.10;;;;;;5086918;28;19912;-61
2023/06/26 12:04:01;;;;;;;;;;;12.60;90.20;;;;;;5075421;28;19913;-61
2023/06/26 12:06:29;;;;;;;;;;;12.70;90.00;;;;;;5074845;28;20277;-63
2023/06/26 12:08:56;;;;;;;;;;;12.70;89.90;;;;;;5075024;28;19908;-61
2023/06/26 12:11:23;;;;;;;;;;;12.70;89.70;;;;;;5075038;28;19931;-61
2023/06/26 12:13:50;;;;;;;;;;;12.80;89.50;;;;;;5087533;28;19920;-62
2023/06/26 12:16:17;;;;;;;;;;;12.80;89.20;;;;;;5095323;28;20372;-62
2023/06/26 12:18:44;;;;;;;;;;;12.80;89.30;;;;;;5094788;28;19908;-62
2023/06/26 12:21:28;;;;;;;;;;;12.90;89.70;;;;;;5095110;28;19908;-62
2023/06/26 12:24:00;;;;;;;;;;;12.90;89.40;;;;;;5095418;28;19999;-61
2023/06/26 12:26:28;;;;;;;;;;;12.90;89.30;;;;;;5091434;28;19916;-61
2023/06/26 12:29:06;;;;;;;;;;;12.90;89.10;;;;;;5093702;28;19912;-61
2023/06/26 12:31:33;;;;;;;;;;;13.00;89.00;;;;;;5094971;28;19908;-62
2023/06/26 12:34:00;;;;;;;;;;;13.00;88.90;;;;;;5077724;28;19973;-61
2023/06/26 12:36:27;;;;;;;;;;;13.00;88.70;;;;;;5074704;28;19916;-62
2023/06/26 12:38:54;;;;;;;;;;;13.10;88.40;;;;;;5074222;28;19958;-60
2023/06/26 12:41:24;;;;;;;;;;;13.10;88.40;;;;;;5091175;28;20242;-62
2023/06/26 12:43:55;;;;;;;;;;;13.10;88.10;;;;;;5094859;28;20464;-61
2023/06/26 12:46:33;;;;;;;;;;;13.20;87.90;;;;;;5094664;28;20000;-61
2023/06/26 12:49:00;;;;;;;;;;;13.20;87.50;;;;;;5080339;28;20049;-62
2023/06/26 12:51:27;;;;;;;;;;;13.40;87.30;;;;;;5074596;28;19911;-61
2023/06/26 12:53:54;;;;;;;;;;;13.40;86.70;;;;;;5075153;28;19917;-62
2023/06/26 12:56:21;;;;;;;;;;;13.50;86.20;;;;;;5077205;28;19917;-62
2023/06/26 12:58:47;;;;;;;;;;;13.60;86.10;;;;;;5074087;28;20353;-61
2023/06/26 13:01:14;;;;;;;;;;;13.50;85.90;;;;;;5074202;28;19909;-61
2023/06/26 13:03:43;;;;;;;;;;;13.50;85.90;;;;;;5074396;28;20313;-61
2023/06/26 13:06:10;;;;;;;;;;;13.50;86.50;;;;;;5074161;28;19908;-61
2023/06/26 13:08:37;;;;;;;;;;;13.50;85.90;;;;;;5056096;28;19915;-62
2023/06/26 13:11:03;;;;;;;;;;;13.40;85.90;;;;;;5087937;28;19948;-62
2023/06/26 13:13:30;;;;;;;;;;;13.40;86.20;;;;;;5094438;28;20361;-62
2023/06/26 13:15:57;;;;;;;;;;;13.40;86.70;;;;;;5094382;28;19998;-63
2023/06/26 13:18:23;;;;;;;;;;;13.30;86.70;;;;;;5088032;28;19958;-60
2023/06/26 13:20:50;;;;;;;;;;;13.30;86.50;;;;;;5087032;28;19913;-63
2023/06/26 13:23:18;;;;;;;;;;;13.30;87.00;;;;;;5094118;28;20281;-62
2023/06/26 13:25:45;;;;;;;;;;;13.20;87.50;;;;;;5094005;28;19930;-61
2023/06/26 13:28:12;;;;;;;;;;;13.20;87.80;;;;;;5093757;28;19908;-61
2023/06/26 13:30:38;;;;;;;;;;;13.10;88.40;;;;;;5080994;28;19913;-61
2023/06/26 13:33:05;;;;;;;;;;;13.00;88.20;;;;;;5073947;28;19925;-61
2023/06/26 13:35:31;;;;;;;;;;;13.00;88.60;;;;;;5073847;28;19919;-61
2023/06/26 13:37:58;;;;;;;;;;;12.90;88.80;;;;;;5077532;28;19912;-61
2023/06/26 13:40:25;;;;;;;;;;;12.90;88.70;;;;;;5093682;28;19917;-61
2023/06/26 13:42:51;;;;;;;;;;;12.90;88.40;;;;;;5093559;28;19920;-61
2023/06/26 13:45:18;;;;;;;;;;;12.90;88.60;;;;;;5094348;28;20284;-62
2023/06/26 13:47:45;;;;;;;;;;;12.90;88.80;;;;;;5087111;28;19912;-61
2023/06/26 13:50:11;;;;;;;;;;;12.90;89.10;;;;;;5083761;28;19912;-61
2023/06/26 13:52:38;;;;;;;;;;;12.90;89.70;;;;;;5093616;28;20035;-61
2023/06/26 13:55:05;;;;;;;;;;;12.90;89.10;;;;;;5093557;28;19935;-62
2023/06/26 13:57:32;;;;;;;;;;;12.90;88.90;;;;;;5090527;28;19920;-62
2023/06/26 13:59:59;;;;;;;;;;;12.90;89.70;;;;;;5073033;28;19956;-63
2023/06/26 14:02:26;;;;;;;;;;;12.90;90.00;;;;;;5072908;28;19917;-63
2023/06/26 14:04:53;;;;;;;;;;;12.80;90.20;;;;;;5073015;28;19909;-61
2023/06/26 14:07:19;;;;;;;;;;;12.80;90.40;;;;;;5073301;28;19933;-62
2023/06/26 14:09:46;;;;;;;;;;;12.60;90.80;;;;;;5072952;28;19919;-62
2023/06/26 14:12:12;;;;;;;;;;;12.60;90.40;;;;;;5088017;28;20007;-61
2023/06/26 14:14:39;;;;;;;;;;;12.60;90.40;;;;;;5093314;28;19931;-61
2023/06/26 14:17:06;;;;;;;;;;;12.60;90.70;;;;;;5073849;28;19917;-63
2023/06/26 14:19:32;;;;;;;;;;;12.50;91.00;;;;;;5093422;28;19908;-62